createdAt,value
2019-04-21T00:00:54.253Z,22.60
2019-04-21T00:03:25.859Z,22.60
2019-04-21T00:06:07.614Z,22.60
2019-04-21T00:11:04.612Z,22.60
2019-04-21T00:13:25.367Z,22.60
2019-04-21T00:15:45.764Z,22.60
2019-04-21T00:18:23.396Z,22.60
2019-04-21T00:20:54.591Z,22.60
2019-04-21T00:23:33.424Z,22.60
2019-04-21T00:25:57.692Z,22.60
2019-04-21T00:28:39.290Z,22.60
2019-04-21T00:31:01.899Z,22.60
2019-04-21T00:33:17.187Z,22.60
2019-04-21T00:35:45.428Z,22.60
2019-04-21T00:38:25.137Z,22.60
2019-04-21T00:40:56.642Z,22.60
2019-04-21T00:43:19.713Z,22.60
2019-04-21T00:45:43.243Z,22.60
2019-04-21T00:48:20.663Z,22.60
2019-04-21T00:51:03.994Z,22.50
2019-04-21T00:53:32.128Z,22.50
2019-04-21T00:55:59.860Z,22.60
2019-04-21T00:58:30.047Z,22.50
2019-04-21T01:00:51.221Z,22.50
2019-04-21T01:03:20.672Z,22.50
2019-04-21T01:05:54.773Z,22.50
2019-04-21T01:08:13.246Z,22.50
2019-04-21T01:10:33.492Z,22.70
2019-04-21T01:13:16.936Z,22.50
2019-04-21T01:15:45.024Z,22.60
2019-04-21T01:18:04.710Z,22.50
2019-04-21T01:20:17.179Z,22.50
2019-04-21T01:22:39.910Z,22.50
2019-04-21T01:25:16.979Z,22.50
2019-04-21T01:27:53.824Z,22.50
2019-04-21T01:30:26.526Z,22.50
2019-04-21T01:32:57.510Z,22.50
2019-04-21T01:35:16.446Z,22.50
2019-04-21T01:37:52.090Z,22.50
2019-04-21T01:40:21.231Z,22.50
2019-04-21T01:42:41.990Z,22.50
2019-04-21T01:45:12.774Z,22.50
2019-04-21T01:47:31.379Z,22.50
2019-04-21T01:49:55.602Z,22.50
2019-04-21T01:52:44.133Z,22.50
2019-04-21T01:55:12.818Z,22.50
2019-04-21T01:57:42.588Z,22.40
2019-04-21T02:00:02.686Z,22.50
2019-04-21T02:02:43.738Z,22.50
2019-04-21T02:05:17.518Z,22.50
2019-04-21T02:07:38.972Z,22.40
2019-04-21T02:10:11.218Z,22.40
2019-04-21T02:12:31.668Z,22.40
2019-04-21T02:15:07.736Z,22.40
2019-04-21T02:17:32.765Z,22.40
2019-04-21T02:19:50.340Z,22.40
2019-04-21T02:22:28.732Z,22.40
2019-04-21T02:24:56.813Z,22.40
2019-04-21T02:27:19.217Z,22.40
2019-04-21T02:29:48.679Z,22.40
2019-04-21T02:32:26.683Z,22.40
2019-04-21T02:35:13.191Z,22.40
2019-04-21T02:37:38.369Z,22.40
2019-04-21T02:39:57.315Z,22.40
2019-04-21T02:47:21.213Z,22.40
2019-04-21T02:49:56.883Z,22.40
2019-04-21T02:52:14.279Z,22.40
2019-04-21T02:54:48.139Z,22.40
2019-04-21T02:57:11.295Z,22.40
2019-04-21T02:59:33.846Z,22.40
2019-04-21T03:02:31.460Z,22.30
2019-04-21T03:04:47.582Z,22.30
2019-04-21T03:14:56.018Z,22.30
2019-04-21T03:19:48.263Z,22.30
2019-04-21T03:22:38.190Z,22.30
2019-04-21T03:24:53.461Z,22.30
2019-04-21T03:27:12.547Z,22.30
2019-04-21T03:29:46.126Z,22.30
2019-04-21T03:32:28.705Z,22.30
2019-04-21T03:34:44.813Z,22.30
2019-04-21T03:39:20.184Z,22.20
2019-04-21T03:41:56.787Z,22.30
2019-04-21T03:44:16.999Z,22.30
2019-04-21T03:49:24.536Z,22.20
2019-04-21T03:51:40.081Z,22.30
2019-04-21T03:56:53.021Z,22.20
2019-04-21T03:59:12.168Z,22.20
2019-04-21T04:01:21.928Z,22.20
2019-04-21T04:06:39.069Z,22.20
2019-04-21T04:09:11.157Z,22.20
2019-04-21T04:11:41.547Z,22.20
2019-04-21T04:14:04.218Z,22.20
2019-04-21T04:18:52.949Z,22.20
2019-04-21T04:21:30.802Z,22.20
2019-04-21T04:26:22.089Z,22.20
2019-04-21T04:29:04.370Z,22.20
2019-04-21T04:31:17.995Z,22.20
2019-04-21T04:33:50.201Z,22.20
2019-04-21T04:36:21.982Z,22.20
2019-04-21T04:38:54.468Z,22.20
2019-04-21T04:41:33.618Z,22.20
2019-04-21T04:43:44.662Z,22.20
2019-04-21T04:46:15.621Z,22.20
2019-04-21T04:48:35.270Z,22.20
2019-04-21T04:51:01.346Z,22.20
2019-04-21T04:53:42.763Z,22.20
2019-04-21T04:58:29.849Z,22.10
2019-04-21T05:01:08.647Z,22.10
2019-04-21T05:06:05.212Z,22.20
2019-04-21T05:08:47.456Z,22.20
2019-04-21T05:10:57.397Z,22.20
2019-04-21T05:13:21.912Z,22.20
2019-04-21T05:15:41.605Z,22.10
2019-04-21T05:18:34.576Z,22.20
2019-04-21T05:20:35.544Z,22.20
2019-04-21T05:22:59.725Z,22.20
2019-04-21T05:25:23.440Z,22.20
2019-04-21T05:27:54.070Z,22.30
2019-04-21T05:30:34.757Z,22.30
2019-04-21T05:33:00.012Z,22.30
2019-04-21T05:35:47.400Z,22.30
2019-04-21T05:38:10.227Z,22.30
2019-04-21T05:40:37.466Z,22.30
2019-04-21T05:43:10.864Z,22.30
2019-04-21T05:45:43.856Z,22.30
2019-04-21T05:48:17.855Z,22.30
2019-04-21T05:50:34.973Z,22.40
2019-04-21T05:53:00.715Z,22.40
2019-04-21T05:55:36.065Z,22.40
2019-04-21T05:57:57.933Z,22.40
2019-04-21T06:00:39.193Z,22.50
2019-04-21T06:02:57.848Z,22.50
2019-04-21T06:05:35.028Z,22.50
2019-04-21T06:07:52.684Z,22.60
2019-04-21T06:10:24.571Z,22.60
2019-04-21T06:12:52.179Z,22.70
2019-04-21T06:15:13.780Z,22.70
2019-04-21T06:17:44.678Z,22.70
2019-04-21T06:20:17.156Z,22.70
2019-04-21T06:22:40.322Z,22.70
2019-04-21T06:25:36.024Z,22.70
2019-04-21T06:27:34.208Z,22.70
2019-04-21T06:29:59.915Z,22.70
2019-04-21T06:35:14.899Z,22.70
2019-04-21T06:42:26.690Z,22.70
2019-04-21T06:45:01.895Z,22.70
2019-04-21T06:49:50.892Z,22.70
2019-04-21T06:54:47.086Z,22.70
2019-04-21T06:57:16.962Z,22.70
2019-04-21T06:59:38.349Z,22.70
2019-04-21T07:02:22.478Z,22.80
2019-04-21T07:04:37.081Z,22.70
2019-04-21T07:07:17.174Z,22.70
2019-04-21T07:09:31.664Z,22.70
2019-04-21T07:11:59.970Z,22.70
2019-04-21T07:16:58.121Z,22.80
2019-04-21T07:19:30.439Z,22.70
2019-04-21T07:21:51.303Z,22.70
2019-04-21T07:26:51.203Z,22.70
2019-04-21T07:31:47.042Z,22.80
2019-04-21T07:34:17.693Z,22.80
2019-04-21T07:36:46.343Z,22.70
2019-04-21T07:39:04.682Z,22.70
2019-04-21T07:41:25.174Z,22.80
2019-04-21T07:43:57.278Z,22.80
2019-04-21T07:46:22.356Z,22.70
2019-04-21T07:49:01.710Z,22.80
2019-04-21T07:51:32.632Z,22.80
2019-04-21T07:54:13.821Z,22.80
2019-04-21T07:56:19.937Z,22.90
2019-04-21T07:59:05.221Z,22.90
2019-04-21T08:03:52.349Z,22.90
2019-04-21T08:06:28.277Z,22.80
2019-04-21T08:08:49.446Z,22.80
2019-04-21T08:11:16.331Z,22.80
2019-04-21T08:13:55.209Z,22.80
2019-04-21T08:16:20.404Z,22.80
2019-04-21T08:18:39.999Z,22.90
2019-04-21T08:21:08.595Z,22.90
2019-04-21T08:23:39.171Z,22.90
2019-04-21T08:26:12.149Z,23.00
2019-04-21T08:28:35.419Z,23.00
2019-04-21T08:31:01.802Z,23.00
2019-04-21T08:33:38.669Z,23.00
2019-04-21T08:36:13.141Z,23.00
2019-04-21T08:38:28.705Z,23.00
2019-04-21T08:40:57.528Z,23.00
2019-04-21T08:43:30.704Z,23.00
2019-04-21T08:45:49.714Z,23.00
2019-04-21T08:48:16.984Z,23.00
2019-04-21T08:50:44.281Z,23.00
2019-04-21T08:53:22.190Z,23.00
2019-04-21T08:56:04.389Z,23.00
2019-04-21T08:58:34.524Z,23.00
2019-04-21T09:01:19.149Z,23.10
2019-04-21T09:03:56.525Z,23.00
2019-04-21T09:06:22.165Z,23.00
2019-04-21T09:08:54.985Z,23.00
2019-04-21T09:11:12.658Z,23.00
2019-04-21T09:13:41.098Z,23.10
2019-04-21T09:16:08.535Z,23.10
2019-04-21T09:18:35.537Z,23.10
2019-04-21T09:21:04.571Z,23.10
2019-04-21T09:23:32.782Z,23.10
2019-04-21T09:26:05.063Z,23.10
2019-04-21T09:28:27.272Z,23.10
2019-04-21T09:30:46.734Z,23.10
2019-04-21T09:33:07.527Z,23.10
2019-04-21T09:35:33.597Z,23.10
2019-04-21T09:38:12.649Z,23.10
2019-04-21T09:40:32.681Z,23.10
2019-04-21T09:43:01.093Z,23.10
2019-04-21T09:45:24.435Z,23.20
2019-04-21T09:47:59.092Z,23.20
2019-04-21T09:50:19.749Z,23.20
2019-04-21T09:52:53.026Z,23.20
2019-04-21T09:55:17.893Z,23.20
2019-04-21T09:57:48.460Z,23.20
2019-04-21T10:00:17.934Z,23.20
2019-04-21T10:02:47.062Z,23.20
2019-04-21T10:05:05.357Z,23.20
2019-04-21T10:07:35.598Z,23.20
2019-04-21T10:10:00.236Z,23.20
2019-04-21T10:12:26.307Z,23.20
2019-04-21T10:14:52.251Z,23.20
2019-04-21T10:17:33.002Z,23.20
2019-04-21T10:19:59.074Z,23.20
2019-04-21T10:22:25.019Z,23.30
2019-04-21T10:24:52.073Z,23.30
2019-04-21T10:27:19.073Z,23.30
2019-04-21T10:29:46.778Z,23.30
2019-04-21T10:32:13.344Z,23.30
2019-04-21T10:34:39.535Z,23.30
2019-04-21T10:37:05.483Z,23.30
2019-04-21T10:39:31.636Z,23.30
2019-04-21T10:41:57.672Z,23.30
2019-04-21T10:44:25.123Z,23.30
2019-04-21T10:46:52.544Z,23.30
2019-04-21T10:49:19.124Z,23.30
2019-04-21T10:51:45.067Z,23.30
2019-04-21T10:54:11.687Z,23.30
2019-04-21T10:56:42.372Z,23.30
2019-04-21T10:59:05.603Z,23.30
2019-04-21T11:01:31.602Z,23.30
2019-04-21T11:04:00.614Z,23.30
2019-04-21T11:06:26.686Z,23.30
2019-04-21T11:08:55.523Z,23.30
2019-04-21T11:11:21.771Z,23.30
2019-04-21T11:13:48.445Z,23.30
2019-04-21T11:16:15.038Z,23.40
2019-04-21T11:18:42.130Z,23.40
2019-04-21T11:21:09.175Z,23.30
2019-04-21T11:23:35.441Z,23.30
2019-04-21T11:26:02.245Z,23.40
2019-04-21T11:28:29.239Z,23.30
2019-04-21T11:30:55.383Z,23.40
2019-04-21T11:33:22.755Z,23.40
2019-04-21T11:35:49.047Z,23.40
2019-04-21T11:38:44.721Z,23.30
2019-04-21T11:41:01.319Z,23.30
2019-04-21T11:43:27.353Z,23.40
2019-04-21T11:45:54.694Z,23.40
2019-04-21T11:48:24.115Z,23.40
2019-04-21T11:50:50.930Z,23.30
2019-04-21T11:53:16.993Z,23.30
2019-04-21T11:55:46.626Z,23.30
2019-04-21T11:58:11.864Z,23.40
2019-04-21T12:00:37.893Z,23.40
2019-04-21T12:03:03.846Z,23.30
2019-04-21T12:05:29.851Z,23.40
2019-04-21T12:07:58.367Z,23.40
2019-04-21T12:10:23.793Z,23.40
2019-04-21T12:12:50.934Z,23.40
2019-04-21T12:15:17.105Z,23.40
2019-04-21T12:17:43.959Z,23.40
2019-04-21T12:20:10.621Z,23.40
2019-04-21T12:22:37.409Z,23.40
2019-04-21T12:25:05.432Z,23.40
2019-04-21T12:27:31.989Z,23.40
2019-04-21T12:29:58.056Z,23.40
2019-04-21T12:32:42.332Z,23.40
2019-04-21T12:35:10.253Z,23.40
2019-04-21T12:37:37.159Z,23.40
2019-04-21T12:40:03.332Z,23.40
2019-04-21T12:42:30.295Z,23.40
2019-04-21T12:44:57.232Z,23.40
2019-04-21T12:47:23.883Z,23.40
2019-04-21T12:49:49.928Z,23.40
2019-04-21T12:52:15.983Z,23.40
2019-04-21T12:54:42.054Z,23.30
2019-04-21T12:57:09.545Z,23.30
2019-04-21T12:59:36.295Z,23.30
2019-04-21T13:02:03.531Z,23.30
2019-04-21T13:04:29.561Z,23.30
2019-04-21T13:06:55.532Z,23.30
2019-04-21T13:09:22.232Z,23.30
2019-04-21T13:11:48.899Z,23.30
2019-04-21T13:14:15.808Z,23.30
2019-04-21T13:16:41.854Z,23.30
2019-04-21T13:19:09.182Z,23.30
2019-04-21T13:21:36.136Z,23.20
2019-04-21T13:24:03.069Z,23.20
2019-04-21T13:26:37.251Z,23.20
2019-04-21T13:28:58.313Z,23.20
2019-04-21T13:31:24.587Z,23.20
2019-04-21T13:33:50.584Z,23.20
2019-04-21T13:36:18.005Z,23.20
2019-04-21T13:39:33.019Z,23.20
2019-04-21T13:41:42.977Z,23.20
2019-04-21T13:44:15.511Z,23.20
2019-04-21T13:46:42.979Z,23.20
2019-04-21T13:49:09.452Z,23.20
2019-04-21T13:51:36.073Z,23.20
2019-04-21T13:54:02.127Z,23.20
2019-04-21T13:56:28.901Z,23.20
2019-04-21T13:58:55.933Z,23.20
2019-04-21T14:01:23.417Z,23.20
2019-04-21T14:03:49.552Z,23.20
2019-04-21T14:06:16.248Z,23.20
2019-04-21T14:08:44.889Z,23.10
2019-04-21T14:11:13.368Z,23.20
2019-04-21T14:13:40.600Z,23.20
2019-04-21T14:16:06.696Z,23.20
2019-04-21T14:18:32.918Z,23.20
2019-04-21T14:21:00.979Z,23.20
2019-04-21T14:23:33.499Z,23.20
2019-04-21T14:25:55.595Z,23.20
2019-04-21T14:28:22.036Z,23.20
2019-04-21T14:30:48.279Z,23.20
2019-04-21T14:33:14.355Z,23.10
2019-04-21T14:35:41.018Z,23.20
2019-04-21T14:38:07.150Z,23.20
2019-04-21T14:40:35.056Z,23.20
2019-04-21T14:43:02.498Z,23.20
2019-04-21T14:45:42.936Z,23.20
2019-04-21T14:48:27.380Z,23.20
2019-04-21T14:50:55.267Z,23.10
2019-04-21T14:53:25.799Z,23.10
2019-04-21T14:55:53.112Z,23.10
2019-04-21T14:58:19.230Z,23.10
2019-04-21T15:00:45.943Z,23.10
2019-04-21T15:03:11.935Z,23.10
2019-04-21T15:05:37.986Z,23.20
2019-04-21T15:08:03.966Z,23.10
2019-04-21T15:10:32.249Z,23.10
2019-04-21T15:12:57.753Z,23.10
2019-04-21T15:15:23.703Z,23.10
2019-04-21T15:17:49.640Z,23.10
2019-04-21T15:20:17.596Z,23.10
2019-04-21T15:22:44.286Z,23.10
2019-04-21T15:25:10.404Z,23.10
2019-04-21T15:27:36.927Z,23.10
2019-04-21T15:30:03.152Z,23.10
2019-04-21T15:32:30.469Z,23.10
2019-04-21T15:34:56.598Z,23.10
2019-04-21T15:37:24.014Z,23.10
2019-04-21T15:39:50.935Z,23.10
2019-04-21T15:42:16.943Z,23.10
2019-04-21T15:44:42.908Z,23.10
2019-04-21T15:47:10.108Z,23.10
2019-04-21T15:50:02.256Z,23.00
2019-04-21T15:52:22.395Z,23.00
2019-04-21T15:54:48.652Z,23.00
2019-04-21T15:57:17.516Z,23.10
2019-04-21T15:59:52.817Z,23.00
2019-04-21T16:02:38.497Z,23.00
2019-04-21T16:05:04.787Z,23.00
2019-04-21T16:07:31.673Z,23.00
2019-04-21T16:09:57.960Z,23.00
2019-04-21T16:12:25.622Z,23.00
2019-04-21T16:14:52.499Z,23.00
2019-04-21T16:17:19.233Z,23.00
2019-04-21T16:19:45.894Z,23.00
2019-04-21T16:22:12.955Z,23.00
2019-04-21T16:24:39.877Z,23.00
2019-04-21T16:27:08.509Z,23.00
2019-04-21T16:29:33.778Z,23.00
2019-04-21T16:31:59.841Z,23.00
2019-04-21T16:34:38.928Z,23.00
2019-04-21T16:36:53.957Z,23.00
2019-04-21T16:39:20.003Z,22.90
2019-04-21T16:41:46.598Z,22.90
2019-04-21T16:44:13.396Z,23.00
2019-04-21T16:46:39.470Z,23.00
2019-04-21T16:49:05.424Z,23.00
2019-04-21T16:51:31.915Z,23.00
2019-04-21T16:53:59.946Z,23.00
2019-04-21T16:56:29.025Z,23.00
2019-04-21T16:58:57.041Z,23.00
2019-04-21T17:01:26.189Z,23.00
2019-04-21T17:03:52.774Z,23.00
2019-04-21T17:06:19.330Z,23.00
2019-04-21T17:08:47.009Z,22.90
2019-04-21T17:11:19.419Z,23.00
2019-04-21T17:13:42.118Z,22.90
2019-04-21T17:16:36.086Z,22.90
2019-04-21T17:18:48.863Z,22.90
2019-04-21T17:21:05.692Z,23.00
2019-04-21T17:23:33.480Z,22.90
2019-04-21T17:25:59.617Z,22.90
2019-04-21T17:28:25.787Z,22.90
2019-04-21T17:30:52.698Z,22.90
2019-04-21T17:33:25.723Z,22.90
2019-04-21T17:35:46.900Z,22.90
2019-04-21T17:38:14.083Z,22.90
2019-04-21T17:40:40.133Z,22.90
2019-04-21T17:43:10.568Z,22.90
2019-04-21T17:45:35.147Z,22.90
2019-04-21T17:48:06.023Z,22.90
2019-04-21T17:50:43.599Z,22.90
2019-04-21T17:53:14.512Z,22.80
2019-04-21T17:55:42.608Z,22.90
2019-04-21T17:58:21.638Z,22.90
2019-04-21T18:03:32.809Z,22.90
2019-04-21T18:05:50.306Z,22.90
2019-04-21T18:08:23.498Z,22.90
2019-04-21T18:10:45.772Z,22.90
2019-04-21T18:13:06.091Z,22.90
2019-04-21T18:15:42.405Z,22.90
2019-04-21T18:17:54.563Z,22.70
2019-04-21T18:20:25.856Z,22.80
2019-04-21T18:23:00.911Z,22.80
2019-04-21T18:25:42.322Z,22.80
2019-04-21T18:27:57.078Z,22.80
2019-04-21T18:30:24.287Z,22.80
2019-04-21T18:32:50.349Z,22.80
2019-04-21T18:35:24.618Z,22.80
2019-04-21T18:38:04.439Z,22.80
2019-04-21T18:40:29.725Z,22.80
2019-04-21T18:43:34.148Z,22.80
2019-04-21T18:46:00.695Z,22.80
2019-04-21T18:48:19.461Z,22.80
2019-04-21T18:50:46.096Z,22.80
2019-04-21T18:53:40.117Z,22.90
2019-04-21T18:55:50.504Z,22.80
2019-04-21T18:58:15.213Z,22.80
2019-04-21T19:00:44.209Z,22.80
2019-04-21T19:03:11.835Z,22.80
2019-04-21T19:05:38.873Z,22.70
2019-04-21T19:08:18.829Z,22.80
2019-04-21T19:10:56.237Z,22.70
2019-04-21T19:16:03.229Z,22.80
2019-04-21T19:18:35.380Z,22.70
2019-04-21T19:20:44.849Z,22.80
2019-04-21T19:23:13.762Z,22.80
2019-04-21T19:25:45.125Z,22.80
2019-04-21T19:28:09.730Z,22.80
2019-04-21T19:33:04.248Z,22.80
2019-04-21T19:35:13.433Z,22.80
2019-04-21T19:37:49.122Z,22.80
2019-04-21T19:40:26.689Z,22.80
2019-04-21T19:42:45.180Z,22.80
2019-04-21T19:45:19.239Z,22.80
2019-04-21T19:47:48.436Z,22.80
2019-04-21T19:50:19.482Z,22.80
2019-04-21T19:52:41.050Z,22.80
2019-04-21T19:54:56.688Z,22.80
2019-04-21T19:57:23.292Z,22.80
2019-04-21T19:59:54.883Z,22.80
2019-04-21T20:02:18.546Z,22.80
2019-04-21T20:04:52.213Z,22.80
2019-04-21T20:07:26.501Z,22.80
2019-04-21T20:10:02.226Z,22.90
2019-04-21T20:12:33.280Z,22.80
2019-04-21T20:15:01.598Z,22.80
2019-04-21T20:17:13.667Z,22.80
2019-04-21T20:19:32.120Z,22.80
2019-04-21T20:21:59.013Z,22.80
2019-04-21T20:24:29.880Z,22.80
2019-04-21T20:27:02.357Z,22.80
2019-04-21T20:29:37.659Z,22.80
2019-04-21T20:32:14.648Z,22.80
2019-04-21T20:34:40.030Z,22.80
2019-04-21T20:37:01.956Z,22.80
2019-04-21T20:39:18.801Z,22.80
2019-04-21T20:41:55.322Z,22.80
2019-04-21T20:44:24.728Z,22.80
2019-04-21T20:46:52.896Z,22.80
2019-04-21T20:49:15.778Z,22.80
2019-04-21T20:51:54.428Z,22.80
2019-04-21T20:54:17.323Z,22.80
2019-04-21T20:56:43.899Z,22.80
2019-04-21T20:59:11.930Z,22.80
2019-04-21T21:01:39.351Z,22.80
2019-04-21T21:04:07.427Z,22.80
2019-04-21T21:06:33.431Z,22.80
2019-04-21T21:09:06.086Z,22.80
2019-04-21T21:11:32.061Z,23.00
2019-04-21T21:14:01.588Z,22.80
2019-04-21T21:16:30.775Z,22.80
2019-04-21T21:19:17.105Z,22.80
2019-04-21T21:21:22.722Z,22.80
2019-04-21T21:23:56.179Z,22.80
2019-04-21T21:26:22.703Z,22.80
2019-04-21T21:28:46.052Z,22.80
2019-04-21T21:31:14.806Z,22.70
2019-04-21T21:33:52.596Z,22.70
2019-04-21T21:36:13.437Z,22.70
2019-04-21T21:38:39.373Z,22.70
2019-04-21T21:41:01.304Z,22.70
2019-04-21T21:43:21.740Z,22.70
2019-04-21T21:45:50.281Z,22.70
2019-04-21T21:48:26.336Z,22.70
2019-04-21T21:50:50.393Z,22.70
2019-04-21T21:53:14.243Z,22.70
2019-04-21T21:55:36.625Z,22.70
2019-04-21T21:58:04.369Z,22.60
2019-04-21T22:00:30.424Z,22.70
2019-04-21T22:02:58.596Z,22.70
2019-04-21T22:05:27.976Z,22.70
2019-04-21T22:07:52.237Z,22.60
2019-04-21T22:10:18.234Z,22.60
2019-04-21T22:12:54.993Z,22.60
2019-04-21T22:15:18.634Z,22.60
2019-04-21T22:17:53.994Z,22.60
2019-04-21T22:20:29.588Z,22.60
2019-04-21T22:22:44.782Z,22.60
2019-04-21T22:25:10.644Z,22.60
2019-04-21T22:27:32.551Z,22.60
2019-04-21T22:30:03.227Z,22.60
2019-04-21T22:32:28.997Z,22.60
2019-04-21T22:34:59.884Z,22.60
2019-04-21T22:37:39.134Z,22.60
2019-04-21T22:40:05.971Z,22.60
2019-04-21T22:42:26.692Z,22.60
2019-04-21T22:44:46.270Z,22.60
2019-04-21T22:47:18.430Z,22.60
2019-04-21T22:49:40.947Z,22.50
2019-04-21T22:52:11.075Z,22.60
2019-04-21T22:54:39.839Z,22.60
2019-04-21T22:57:11.519Z,22.60
2019-04-21T22:59:32.028Z,22.60
2019-04-21T23:01:59.423Z,22.60
2019-04-21T23:04:35.637Z,22.50
2019-04-21T23:06:56.646Z,22.60
2019-04-21T23:09:22.451Z,22.50
2019-04-21T23:11:51.425Z,22.50
2019-04-21T23:14:17.514Z,22.60
2019-04-21T23:16:46.336Z,22.60
2019-04-21T23:19:27.772Z,22.50
2019-04-21T23:21:56.277Z,22.60
2019-04-21T23:24:31.738Z,22.50
2019-04-21T23:26:49.329Z,22.50
2019-04-21T23:29:25.725Z,22.50
2019-04-21T23:31:52.092Z,22.50
2019-04-21T23:34:00.068Z,22.50
2019-04-21T23:36:30.079Z,22.50
2019-04-21T23:38:58.510Z,22.50
2019-04-21T23:41:26.036Z,22.50
2019-04-21T23:43:59.943Z,22.50
2019-04-21T23:46:25.850Z,22.50
2019-04-21T23:49:01.890Z,22.50
2019-04-21T23:51:30.101Z,22.50
2019-04-21T23:53:44.112Z,22.50
2019-04-21T23:56:14.712Z,22.50
2019-04-21T23:58:38.874Z,22.50
